Time;durP1;ratioP1;P1;durP2;ratioP2;P2;SDS_P1;SDS_P2;PMS_P1;PMS_P2;Temp;Humidity;BMP_temperature;BMP_pressure;BME280_temperature;BME280_humidity;BME280_pressure;Samples;Min_cycle;Max_cycle;Signal;HPM_P1;HPM_P2
2021/08/23 00:01:59;;;;;;;2.72;1.65;;;17.80;90.70;;;;;;4992566;28;20065;-80
2021/08/23 00:04:25;;;;;;;1.92;1.48;;;17.70;90.70;;;;;;5008992;28;20081;-80
2021/08/23 00:06:52;;;;;;;1.60;1.30;;;17.70;90.70;;;;;;4994853;28;20045;-80
2021/08/23 00:09:20;;;;;;;1.75;1.50;;;17.80;90.80;;;;;;4993328;28;20486;-80
2021/08/23 00:11:46;;;;;;;3.30;1.90;;;17.70;90.70;;;;;;4992699;28;20045;-80
2021/08/23 00:14:12;;;;;;;1.48;1.38;;;17.70;90.70;;;;;;4992831;28;20417;-80
2021/08/23 00:16:38;;;;;;;1.85;1.40;;;17.70;90.80;;;;;;4993341;28;20027;-80
2021/08/23 00:19:03;;;;;;;1.45;1.30;;;17.60;90.80;;;;;;4976651;28;20031;-80
2021/08/23 00:21:29;;;;;;;2.28;1.60;;;17.60;90.80;;;;;;4992253;28;20042;-80
2021/08/23 00:26:40;;;;;;;2.70;1.35;;;17.70;90.80;;;;;;4994579;28;20130;-80
2021/08/23 00:29:06;;;;;;;1.50;1.30;;;17.60;90.80;;;;;;4992900;28;20120;-80
2021/08/23 00:31:31;;;;;;;2.33;1.52;;;17.60;90.80;;;;;;4991914;28;20034;-80
2021/08/23 00:33:57;;;;;;;1.70;1.30;;;17.60;90.80;;;;;;4991511;28;20097;-80
2021/08/23 00:36:23;;;;;;;1.65;1.40;;;17.60;90.80;;;;;;4992986;28;20105;-80
2021/08/23 00:38:48;;;;;;;1.92;1.40;;;17.60;90.80;;;;;;4992244;28;20031;-80
2021/08/23 00:41:14;;;;;;;1.85;1.50;;;17.60;90.80;;;;;;5007901;28;20050;-80
2021/08/23 00:43:40;;;;;;;1.90;1.35;;;17.60;90.80;;;;;;4992937;28;20030;-80
2021/08/23 00:46:06;;;;;;;1.27;1.15;;;17.60;90.90;;;;;;4992932;28;20747;-80
2021/08/23 00:48:33;;;;;;;1.38;1.27;;;17.50;90.80;;;;;;4975503;28;20101;-80
2021/08/23 00:51:01;;;;;;;1.73;1.23;;;17.50;90.80;;;;;;5007927;28;20035;-80
2021/08/23 00:53:28;;;;;;;1.35;1.10;;;17.50;90.80;;;;;;4994529;28;20034;-80
2021/08/23 00:55:55;;;;;;;1.50;1.30;;;17.50;90.90;;;;;;4992419;28;20030;-80
2021/08/23 00:58:21;;;;;;;1.55;1.20;;;17.50;90.90;;;;;;4992185;28;20034;-80
2021/08/23 01:01:07;;;;;;;1.60;1.20;;;17.50;90.90;;;;;;5008396;28;20205;-80
2021/08/23 01:03:39;;;;;;;2.13;1.10;;;17.50;90.90;;;;;;4992910;28;20399;-80
2021/08/23 01:06:08;;;;;;;1.88;1.40;;;17.40;90.90;;;;;;5007040;28;20038;-80
2021/08/23 01:08:42;;;;;;;1.45;1.10;;;17.40;90.90;;;;;;4991603;28;20038;-80
2021/08/23 01:11:10;;;;;;;1.38;1.20;;;17.40;90.90;;;;;;5008186;28;20049;-81
2021/08/23 01:13:47;;;;;;;2.03;1.50;;;17.40;90.90;;;;;;5007796;28;20556;-80
2021/08/23 01:16:13;;;;;;;1.38;1.00;;;17.40;90.90;;;;;;4993569;28;20042;-80
2021/08/23 01:18:39;;;;;;;1.73;1.40;;;17.40;90.90;;;;;;4996707;28;20454;-81
2021/08/23 01:21:08;;;;;;;1.88;1.33;;;17.40;90.90;;;;;;4990109;28;20090;-80
2021/08/23 01:23:36;;;;;;;1.30;1.15;;;17.40;90.90;;;;;;4990990;28;20405;-80
2021/08/23 01:26:02;;;;;;;3.03;1.45;;;17.40;90.90;;;;;;4990867;28;20442;-80
2021/08/23 01:28:56;;;;;;;1.67;1.30;;;17.40;90.90;;;;;;4992565;28;20042;-80
2021/08/23 01:31:41;;;;;;;2.17;1.73;;;17.50;90.90;;;;;;4992274;28;20038;-81
2021/08/23 01:34:08;;;;;;;2.50;1.80;;;17.40;90.90;;;;;;4991325;28;20034;-80
2021/08/23 01:36:35;;;;;;;2.63;1.73;;;17.40;90.90;;;;;;4990834;28;20061;-80
2021/08/23 01:39:02;;;;;;;2.13;1.60;;;17.40;90.90;;;;;;4992620;28;20406;-81
2021/08/23 01:41:28;;;;;;;2.20;1.60;;;17.40;90.90;;;;;;4991595;28;20128;-81
2021/08/23 01:43:53;;;;;;;2.60;1.88;;;17.40;90.90;;;;;;4990947;28;20069;-81
2021/08/23 01:46:19;;;;;;;2.08;1.60;;;17.40;90.90;;;;;;4993937;28;20124;-81
2021/08/23 01:48:46;;;;;;;2.33;1.70;;;17.40;90.90;;;;;;4993390;28;20130;-81
2021/08/23 01:51:12;;;;;;;2.30;1.60;;;17.40;90.80;;;;;;4991317;28;20176;-81
2021/08/23 01:53:39;;;;;;;2.58;1.83;;;17.40;90.90;;;;;;4990838;28;20618;-81
2021/08/23 01:56:05;;;;;;;2.60;1.67;;;17.40;90.90;;;;;;4990245;28;20109;-82
2021/08/23 01:58:30;;;;;;;3.05;1.90;;;17.40;90.90;;;;;;4993719;28;20082;-80
2021/08/23 02:00:56;;;;;;;2.47;1.88;;;17.40;90.90;;;;;;4990879;28;20039;-81
2021/08/23 02:03:22;;;;;;;1.75;1.40;;;17.40;90.90;;;;;;4974297;28;20046;-81
2021/08/23 02:05:48;;;;;;;2.65;1.70;;;17.40;90.90;;;;;;4991805;28;20509;-81
2021/08/23 02:08:14;;;;;;;3.17;1.85;;;17.40;90.90;;;;;;5007503;28;20668;-81
2021/08/23 02:10:40;;;;;;;2.75;1.80;;;17.40;90.90;;;;;;5006743;28;20446;-81
2021/08/23 02:13:06;;;;;;;1.98;1.40;;;17.40;90.90;;;;;;5006096;28;20133;-81
2021/08/23 02:15:31;;;;;;;2.38;1.67;;;17.40;90.90;;;;;;4992913;28;20049;-81
2021/08/23 02:17:57;;;;;;;3.35;2.13;;;17.30;90.90;;;;;;4990196;28;20395;-81
2021/08/23 02:20:23;;;;;;;3.15;1.95;;;17.40;90.90;;;;;;4990571;28;20129;-81
2021/08/23 02:22:49;;;;;;;4.05;2.20;;;17.40;90.90;;;;;;4991496;28;20089;-81
2021/08/23 02:25:21;;;;;;;3.08;1.75;;;17.40;90.90;;;;;;5006944;28;20038;-82
2021/08/23 02:27:48;;;;;;;4.55;2.00;;;17.40;90.90;;;;;;4992906;28;20034;-81
2021/08/23 02:30:14;;;;;;;3.45;2.08;;;17.50;91.00;;;;;;4992533;28;20045;-81
2021/08/23 02:32:40;;;;;;;3.65;1.90;;;17.50;90.90;;;;;;4992779;28;20128;-81
2021/08/23 02:35:07;;;;;;;3.63;2.20;;;17.50;91.00;;;;;;4991951;28;20037;-81
2021/08/23 02:37:33;;;;;;;4.00;2.38;;;17.50;90.90;;;;;;4991001;28;20027;-80
2021/08/23 02:39:59;;;;;;;4.22;2.42;;;17.50;90.90;;;;;;5006881;28;20137;-81
2021/08/23 02:42:24;;;;;;;3.75;2.22;;;17.40;90.90;;;;;;4990093;28;20061;-81
2021/08/23 02:44:50;;;;;;;3.28;2.00;;;17.50;90.90;;;;;;4974759;28;20074;-82
2021/08/23 02:47:16;;;;;;;3.08;2.05;;;17.50;90.90;;;;;;5006415;28;20379;-81
2021/08/23 02:49:42;;;;;;;4.13;2.42;;;17.50;90.90;;;;;;4992449;28;20043;-81
2021/08/23 02:52:09;;;;;;;4.70;2.40;;;17.50;90.90;;;;;;4991417;28;20069;-82
2021/08/23 02:54:34;;;;;;;2.97;1.98;;;17.40;90.90;;;;;;5006914;28;21348;-82
2021/08/23 02:57:00;;;;;;;2.47;1.48;;;17.50;91.00;;;;;;4973641;28;20058;-81
2021/08/23 02:59:26;;;;;;;2.90;1.88;;;17.50;90.90;;;;;;4989390;28;20501;-82
2021/08/23 03:01:51;;;;;;;2.72;1.92;;;17.50;91.00;;;;;;4990705;28;20034;-81
2021/08/23 03:04:17;;;;;;;2.70;1.85;;;17.50;91.00;;;;;;4992623;28;20439;-80
2021/08/23 03:06:43;;;;;;;2.88;1.83;;;17.50;91.00;;;;;;4992873;28;20073;-81
2021/08/23 03:09:08;;;;;;;2.58;1.73;;;17.50;91.00;;;;;;4990863;28;20052;-81
2021/08/23 03:11:34;;;;;;;1.60;1.40;;;17.60;91.00;;;;;;4992342;28;20472;-82
2021/08/23 03:14:00;;;;;;;2.33;1.48;;;17.50;91.00;;;;;;4990301;28;20042;-81
2021/08/23 03:16:26;;;;;;;2.20;1.60;;;17.50;91.00;;;;;;4974746;28;20125;-81
2021/08/23 03:18:51;;;;;;;1.77;1.38;;;17.50;91.00;;;;;;4990394;28;20031;-81
2021/08/23 03:21:17;;;;;;;1.50;1.25;;;17.50;91.00;;;;;;4989604;28;20050;-81
2021/08/23 03:23:43;;;;;;;1.88;1.30;;;17.50;91.00;;;;;;4988900;28;20056;-82
2021/08/23 03:26:09;;;;;;;2.45;1.73;;;17.50;91.00;;;;;;4991522;28;20124;-81
2021/08/23 03:28:35;;;;;;;2.72;1.77;;;17.40;91.00;;;;;;4975120;28;20053;-81
2021/08/23 03:31:01;;;;;;;2.92;1.80;;;17.40;91.00;;;;;;4995018;28;20437;-81
2021/08/23 03:33:28;;;;;;;3.67;2.05;;;17.40;91.10;;;;;;4993259;28;20096;-81
2021/08/23 03:35:54;;;;;;;2.15;1.63;;;17.40;91.10;;;;;;4992620;28;20062;-81
2021/08/23 03:38:20;;;;;;;3.53;2.20;;;17.50;91.10;;;;;;4993979;28;20039;-81
2021/08/23 03:40:45;;;;;;;3.47;2.15;;;17.40;91.10;;;;;;4993957;28;20470;-81
2021/08/23 03:43:11;;;;;;;3.30;1.80;;;17.40;91.10;;;;;;4992711;28;20037;-81
2021/08/23 03:45:37;;;;;;;2.38;1.52;;;17.30;91.10;;;;;;4990046;28;20042;-81
2021/08/23 03:48:03;;;;;;;3.00;2.00;;;17.30;91.10;;;;;;4995204;28;20129;-81
2021/08/23 03:50:29;;;;;;;4.00;2.40;;;17.30;91.10;;;;;;4995652;28;20078;-82
2021/08/23 03:52:55;;;;;;;3.25;2.10;;;17.30;91.20;;;;;;4991989;28;20049;-81
2021/08/23 03:55:22;;;;;;;3.67;2.30;;;17.20;91.10;;;;;;4993740;28;20037;-80
2021/08/23 03:57:48;;;;;;;4.30;2.53;;;17.30;91.20;;;;;;4993937;28;20105;-81
2021/08/23 04:00:14;;;;;;;3.65;2.22;;;17.30;91.20;;;;;;4992709;28;20075;-82
2021/08/23 04:02:39;;;;;;;3.85;2.30;;;17.20;91.10;;;;;;4994191;28;20031;-81
2021/08/23 04:05:06;;;;;;;4.32;2.28;;;17.20;91.20;;;;;;5010374;28;20030;-81
2021/08/23 04:07:32;;;;;;;4.55;2.30;;;17.20;91.20;;;;;;4978237;28;20073;-81
2021/08/23 04:09:58;;;;;;;4.25;2.67;;;17.20;91.20;;;;;;4994887;28;20034;-81
2021/08/23 04:12:24;;;;;;;3.75;2.38;;;17.20;91.20;;;;;;4995251;28;20121;-81
2021/08/23 04:14:50;;;;;;;3.92;2.17;;;17.20;91.20;;;;;;4993066;28;20066;-81
2021/08/23 04:17:16;;;;;;;3.45;2.05;;;17.10;91.20;;;;;;4992417;28;20069;-81
2021/08/23 04:19:42;;;;;;;5.22;2.50;;;17.10;91.20;;;;;;4991916;28;20096;-81
2021/08/23 04:22:11;;;;;;;4.55;2.63;;;17.10;91.20;;;;;;4977562;28;20066;-81
2021/08/23 04:24:38;;;;;;;4.68;2.67;;;17.10;91.20;;;;;;4994076;28;20506;-80
2021/08/23 04:27:04;;;;;;;4.22;2.65;;;17.10;91.20;;;;;;5010067;28;20038;-81
2021/08/23 04:29:30;;;;;;;3.05;1.73;;;17.10;91.20;;;;;;4993587;28;20038;-81
2021/08/23 04:31:55;;;;;;;3.72;2.38;;;17.10;91.20;;;;;;4993882;28;20043;-81
2021/08/23 04:34:21;;;;;;;3.95;2.25;;;17.10;91.20;;;;;;4993449;28;20070;-81
2021/08/23 04:36:47;;;;;;;4.97;3.10;;;17.00;91.20;;;;;;4993267;28;20023;-81
2021/08/23 04:39:12;;;;;;;4.50;2.50;;;17.10;91.20;;;;;;4993487;28;20030;-80
2021/08/23 04:41:40;;;;;;;4.15;2.38;;;17.00;91.20;;;;;;4994211;28;20031;-80
2021/08/23 04:44:06;;;;;;;4.97;3.10;;;17.00;91.20;;;;;;4992490;28;20045;-80
2021/08/23 04:46:33;;;;;;;4.15;2.40;;;17.00;91.30;;;;;;4991989;28;20446;-81
2021/08/23 04:48:59;;;;;;;4.22;2.22;;;17.00;91.30;;;;;;4977118;28;20049;-81
2021/08/23 04:51:24;;;;;;;3.20;1.90;;;16.90;91.30;;;;;;4993194;28;20034;-82
2021/08/23 04:53:50;;;;;;;4.35;2.50;;;16.90;91.30;;;;;;4992346;28;20030;-80
2021/08/23 04:56:17;;;;;;;3.65;2.10;;;17.00;91.30;;;;;;4991357;28;20118;-81
2021/08/23 04:58:43;;;;;;;4.47;2.50;;;16.90;91.30;;;;;;4993162;28;20062;-80
2021/08/23 05:01:10;;;;;;;4.78;2.40;;;16.70;91.30;;;;;;4993336;28;20095;-80
2021/08/23 05:03:36;;;;;;;4.45;2.40;;;16.90;91.40;;;;;;4992973;28;20069;-80
2021/08/23 05:06:03;;;;;;;3.75;2.20;;;16.80;91.30;;;;;;4993238;28;20074;-80
2021/08/23 05:08:28;;;;;;;3.50;2.10;;;16.80;91.30;;;;;;4993039;28;20038;-80
2021/08/23 05:10:54;;;;;;;3.30;2.10;;;16.80;91.30;;;;;;5009526;28;20045;-81
2021/08/23 05:13:20;;;;;;;4.75;2.10;;;16.80;91.30;;;;;;4993213;28;20173;-81
2021/08/23 05:15:46;;;;;;;3.45;1.90;;;16.80;91.30;;;;;;4994321;28;20034;-81
2021/08/23 05:18:11;;;;;;;3.10;2.10;;;16.80;91.60;;;;;;5007737;28;20042;-81
2021/08/23 05:20:37;;;;;;;3.22;1.83;;;16.80;91.30;;;;;;4994329;28;20038;-81
2021/08/23 05:23:03;;;;;;;3.70;1.80;;;16.80;91.30;;;;;;4992750;28;20058;-80
2021/08/23 05:25:33;;;;;;;4.82;2.28;;;16.80;91.30;;;;;;4991698;28;20037;-80
2021/08/23 05:27:59;;;;;;;4.35;2.30;;;16.80;91.30;;;;;;5007707;28;20150;-80
2021/08/23 05:30:25;;;;;;;4.00;2.10;;;16.70;91.30;;;;;;4994382;28;20047;-81
2021/08/23 05:32:51;;;;;;;4.28;2.20;;;16.80;91.30;;;;;;4992206;28;20034;-81
2021/08/23 05:35:16;;;;;;;3.30;1.77;;;16.70;91.30;;;;;;4998162;28;20057;-80
2021/08/23 05:37:43;;;;;;;2.92;1.70;;;16.80;91.30;;;;;;4999820;28;20482;-79
2021/08/23 05:40:09;;;;;;;3.70;2.05;;;16.70;91.30;;;;;;5015907;28;20038;-80
2021/08/23 05:42:35;;;;;;;3.05;1.65;;;16.70;91.30;;;;;;5003799;28;20066;-80
2021/08/23 05:45:01;;;;;;;3.28;1.98;;;16.70;91.20;;;;;;5001345;28;20039;-80
2021/08/23 05:47:27;;;;;;;3.40;1.77;;;16.70;91.20;;;;;;5017194;28;20030;-81
2021/08/23 05:49:53;;;;;;;3.67;1.90;;;16.70;91.20;;;;;;4979657;28;20030;-81
2021/08/23 05:52:18;;;;;;;2.75;1.70;;;16.80;91.20;;;;;;4991793;28;20085;-81
2021/08/23 05:54:46;;;;;;;2.47;1.70;;;16.80;91.20;;;;;;4994102;28;20093;-81
2021/08/23 05:57:12;;;;;;;3.53;1.88;;;16.70;91.20;;;;;;4993217;28;20055;-81
2021/08/23 05:59:38;;;;;;;4.03;2.35;;;16.80;91.20;;;;;;4992261;28;20038;-81
2021/08/23 06:02:04;;;;;;;3.72;2.33;;;16.70;91.20;;;;;;4993505;28;20043;-81
2021/08/23 06:04:29;;;;;;;3.40;2.00;;;16.80;91.20;;;;;;4994135;28;20042;-81
2021/08/23 06:06:55;;;;;;;3.33;2.13;;;16.80;91.20;;;;;;4991893;28;20038;-81
2021/08/23 06:09:21;;;;;;;3.28;2.03;;;16.80;91.20;;;;;;4987330;28;20034;-81
2021/08/23 06:11:48;;;;;;;3.65;2.03;;;16.70;91.10;;;;;;5008538;28;20427;-81
2021/08/23 06:14:14;;;;;;;2.08;1.75;;;16.80;91.20;;;;;;4992134;28;20096;-81
2021/08/23 06:16:39;;;;;;;3.08;1.73;;;16.70;91.10;;;;;;4992058;28;20120;-81
2021/08/23 06:19:05;;;;;;;2.90;1.70;;;16.80;91.10;;;;;;4991868;28;20027;-81
2021/08/23 06:21:32;;;;;;;2.60;1.80;;;16.80;91.10;;;;;;4992670;28;20474;-81
2021/08/23 06:23:58;;;;;;;2.47;1.75;;;16.80;91.20;;;;;;4991968;28;20046;-81
2021/08/23 06:26:23;;;;;;;2.30;1.70;;;16.80;91.10;;;;;;4992085;28;20035;-81
2021/08/23 06:28:49;;;;;;;2.63;1.95;;;16.90;91.10;;;;;;4992050;28;20043;-81
2021/08/23 06:31:15;;;;;;;3.17;2.00;;;16.90;91.10;;;;;;4993104;28;20069;-80
2021/08/23 06:33:41;;;;;;;2.15;1.58;;;16.90;91.10;;;;;;4990630;28;20042;-81
2021/08/23 06:36:07;;;;;;;3.25;1.92;;;16.90;91.10;;;;;;5008724;28;20034;-81
2021/08/23 06:38:32;;;;;;;2.70;1.73;;;16.90;91.10;;;;;;4991844;28;20027;-81
2021/08/23 06:40:58;;;;;;;2.38;1.70;;;16.90;91.00;;;;;;4991617;28;20550;-81
2021/08/23 06:43:25;;;;;;;2.60;1.73;;;16.90;91.00;;;;;;4991571;28;20121;-81
2021/08/23 06:45:51;;;;;;;1.75;1.52;;;17.00;91.00;;;;;;4993023;28;20057;-82
2021/08/23 06:48:17;;;;;;;2.70;1.83;;;16.90;91.00;;;;;;4992294;28;20041;-81
2021/08/23 06:50:45;;;;;;;2.92;1.80;;;17.00;90.90;;;;;;4993467;28;20046;-81
2021/08/23 06:53:10;;;;;;;2.20;1.52;;;17.10;90.90;;;;;;4990717;28;20399;-80
2021/08/23 06:55:37;;;;;;;3.47;2.20;;;17.00;91.20;;;;;;5006244;28;20038;-81
2021/08/23 06:58:03;;;;;;;3.30;2.00;;;17.10;90.90;;;;;;4991759;28;20129;-81
2021/08/23 07:00:29;;;;;;;2.00;1.58;;;17.10;90.80;;;;;;4992501;28;20085;-81
2021/08/23 07:02:55;;;;;;;3.13;1.80;;;17.20;90.80;;;;;;4990336;28;20043;-81
2021/08/23 07:05:22;;;;;;;2.65;1.80;;;17.30;90.80;;;;;;4992863;28;20182;-81
2021/08/23 07:07:48;;;;;;;2.67;1.83;;;17.40;90.70;;;;;;4994630;28;20038;-81
2021/08/23 07:10:14;;;;;;;2.75;1.70;;;17.50;90.60;;;;;;4995664;28;20046;-81
2021/08/23 07:12:41;;;;;;;2.42;1.60;;;17.60;90.50;;;;;;4996199;28;20039;-81
2021/08/23 07:15:08;;;;;;;2.88;1.50;;;17.70;90.40;;;;;;4976596;28;20466;-81
2021/08/23 07:17:35;;;;;;;2.20;1.42;;;17.70;90.40;;;;;;4994415;28;20089;-81
2021/08/23 07:20:01;;;;;;;1.35;1.10;;;17.70;90.30;;;;;;4994152;28;20038;-81
2021/08/23 07:22:26;;;;;;;1.55;1.10;;;17.70;90.30;;;;;;4993681;28;20062;-80
2021/08/23 07:24:52;;;;;;;1.40;1.00;;;17.80;90.30;;;;;;4993459;28;20069;-81
2021/08/23 07:27:19;;;;;;;1.08;0.98;;;17.80;90.30;;;;;;5011203;28;20458;-80
2021/08/23 07:29:45;;;;;;;1.48;1.17;;;17.90;90.30;;;;;;4992687;28;20038;-80
2021/08/23 07:32:11;;;;;;;1.58;1.20;;;17.80;90.20;;;;;;4993625;28;20113;-80
2021/08/23 07:34:37;;;;;;;2.08;1.17;;;17.90;90.20;;;;;;4994288;28;20038;-80
2021/08/23 07:37:03;;;;;;;1.52;1.17;;;17.90;90.20;;;;;;4977489;28;20105;-80
2021/08/23 07:39:29;;;;;;;1.88;1.10;;;17.90;90.20;;;;;;4993507;28;20479;-81
2021/08/23 07:41:55;;;;;;;1.40;1.08;;;17.90;90.20;;;;;;4993833;28;20077;-81
2021/08/23 07:44:21;;;;;;;1.60;1.10;;;17.90;90.20;;;;;;4977482;28;20039;-80
2021/08/23 07:46:47;;;;;;;1.52;1.17;;;17.90;90.20;;;;;;4993817;28;20088;-81
2021/08/23 07:49:13;;;;;;;2.08;1.20;;;17.90;90.20;;;;;;4977565;28;20082;-80
2021/08/23 07:51:38;;;;;;;1.98;1.35;;;18.00;90.20;;;;;;4977068;28;20141;-81
2021/08/23 07:54:04;;;;;;;1.58;1.30;;;18.10;90.20;;;;;;4993202;28;20554;-80
2021/08/23 07:56:31;;;;;;;2.15;1.20;;;18.10;90.10;;;;;;4976982;28;20390;-80
2021/08/23 07:58:57;;;;;;;2.03;1.40;;;18.20;90.00;;;;;;4992935;28;20042;-79
2021/08/23 08:01:24;;;;;;;1.95;1.20;;;18.30;89.70;;;;;;4993291;28;20042;-80
2021/08/23 08:03:50;;;;;;;1.40;1.20;;;18.30;89.60;;;;;;4995276;28;20056;-80
2021/08/23 08:06:16;;;;;;;1.40;1.05;;;18.30;89.50;;;;;;4992444;28;20038;-79
2021/08/23 08:08:42;;;;;;;1.50;1.02;;;18.40;89.60;;;;;;5009291;28;20092;-79
2021/08/23 08:11:09;;;;;;;2.30;1.20;;;18.50;89.70;;;;;;4993990;28;20138;-79
2021/08/23 08:13:35;;;;;;;2.25;1.15;;;18.40;89.50;;;;;;4992677;28;20066;-79
2021/08/23 08:16:01;;;;;;;1.40;0.93;;;18.40;89.40;;;;;;4991615;28;20035;-78
2021/08/23 08:18:26;;;;;;;1.10;0.82;;;18.40;89.60;;;;;;4995308;28;20030;-79
2021/08/23 08:20:52;;;;;;;1.60;1.10;;;18.30;89.60;;;;;;4995144;28;20037;-79
2021/08/23 08:23:18;;;;;;;1.40;1.00;;;18.30;89.80;;;;;;4995119;28;20038;-79
2021/08/23 08:25:44;;;;;;;1.10;0.90;;;18.40;89.80;;;;;;5008692;28;20105;-80
2021/08/23 08:28:11;;;;;;;1.70;0.93;;;18.40;89.80;;;;;;4995051;28;20038;-79
2021/08/23 08:30:37;;;;;;;0.98;0.80;;;18.50;89.70;;;;;;4994838;28;20070;-80
2021/08/23 08:33:03;;;;;;;1.20;0.88;;;18.60;89.60;;;;;;4992275;28;20475;-80
2021/08/23 08:35:29;;;;;;;0.90;0.75;;;18.80;89.50;;;;;;4992987;28;20060;-79
2021/08/23 08:37:54;;;;;;;2.70;1.20;;;18.70;89.20;;;;;;4994938;28;20129;-79
2021/08/23 08:40:20;;;;;;;1.10;0.95;;;18.70;89.00;;;;;;5010183;28;20367;-79
2021/08/23 08:42:46;;;;;;;1.50;0.90;;;18.80;88.90;;;;;;4993464;28;20042;-79
2021/08/23 08:45:13;;;;;;;1.63;1.20;;;18.80;88.90;;;;;;4992937;28;20383;-78
2021/08/23 08:47:41;;;;;;;0.70;0.70;;;18.90;88.80;;;;;;4991838;28;20114;-78
2021/08/23 08:50:09;;;;;;;2.38;1.05;;;19.00;88.70;;;;;;4994484;28;20030;-78
2021/08/23 08:52:37;;;;;;;1.10;1.00;;;19.10;88.50;;;;;;4994741;28;20034;-80
2021/08/23 08:55:03;;;;;;;1.35;0.95;;;19.10;88.20;;;;;;4992935;28;20060;-79
2021/08/23 08:57:28;;;;;;;1.33;0.88;;;19.10;88.10;;;;;;4992379;28;20042;-79
2021/08/23 08:59:54;;;;;;;1.08;0.80;;;19.20;88.00;;;;;;4992051;28;20034;-78
2021/08/23 09:02:20;;;;;;;0.88;0.70;;;19.10;87.90;;;;;;4995076;28;20407;-78
2021/08/23 09:04:45;;;;;;;0.77;0.77;;;19.20;88.00;;;;;;4994683;28;20509;-78
2021/08/23 09:07:13;;;;;;;0.80;0.80;;;19.20;87.90;;;;;;4994534;28;20479;-79
2021/08/23 09:09:39;;;;;;;3.17;0.80;;;19.20;88.50;;;;;;4991613;28;20050;-78
2021/08/23 09:12:09;;;;;;;1.15;0.90;;;19.30;87.90;;;;;;4992567;28;20130;-79
2021/08/23 09:14:55;;;;;;;0.63;0.63;;;19.30;87.70;;;;;;4994289;28;20046;-78
2021/08/23 09:17:23;;;;;;;0.73;0.68;;;19.30;87.70;;;;;;4994313;28;20474;-79
2021/08/23 09:19:58;;;;;;;1.27;0.70;;;19.40;87.50;;;;;;4993876;28;20034;-78
2021/08/23 09:22:25;;;;;;;1.77;0.80;;;19.50;87.50;;;;;;4994239;28;20042;-79
2021/08/23 09:24:51;;;;;;;1.33;1.00;;;19.40;87.20;;;;;;4992263;28;20173;-78
2021/08/23 09:27:16;;;;;;;0.95;0.80;;;19.40;87.20;;;;;;4992962;28;20459;-78
2021/08/23 09:29:55;;;;;;;1.40;0.90;;;19.40;87.20;;;;;;4991046;28;20041;-78
2021/08/23 09:32:24;;;;;;;1.42;0.80;;;19.30;87.10;;;;;;5008219;28;20092;-78
2021/08/23 09:34:51;;;;;;;1.10;1.00;;;19.40;87.20;;;;;;4993599;28;20076;-78
2021/08/23 09:37:21;;;;;;;1.20;0.98;;;19.50;87.20;;;;;;4991152;28;20041;-78
2021/08/23 09:39:47;;;;;;;1.25;0.90;;;19.50;87.00;;;;;;5007753;28;20051;-78
2021/08/23 09:42:14;;;;;;;1.15;0.90;;;19.60;86.90;;;;;;5006895;28;20125;-78
2021/08/23 09:44:41;;;;;;;0.82;0.80;;;19.60;86.60;;;;;;4993620;28;20121;-78
2021/08/23 09:47:08;;;;;;;0.90;0.75;;;19.70;86.50;;;;;;4991692;28;20054;-79
2021/08/23 09:49:44;;;;;;;0.70;0.70;;;19.70;86.50;;;;;;4991833;28;20488;-78
2021/08/23 09:52:16;;;;;;;1.48;0.95;;;19.80;86.50;;;;;;4992378;28;20042;-78
2021/08/23 09:54:42;;;;;;;1.58;1.13;;;19.90;86.20;;;;;;4992779;28;20042;-79
2021/08/23 09:57:11;;;;;;;0.95;0.88;;;19.90;86.10;;;;;;4993777;28;20656;-78
2021/08/23 09:59:39;;;;;;;1.38;0.88;;;19.90;86.70;;;;;;4991755;28;20050;-78
2021/08/23 10:02:09;;;;;;;1.02;0.82;;;19.90;86.00;;;;;;5007605;28;20049;-78
2021/08/23 10:04:35;;;;;;;0.80;0.73;;;19.90;86.00;;;;;;4991213;28;20057;-78
2021/08/23 10:07:01;;;;;;;0.77;0.70;;;20.10;86.00;;;;;;4993190;28;20060;-78
2021/08/23 10:09:27;;;;;;;1.75;0.77;;;20.10;85.70;;;;;;4991560;28;20523;-78
2021/08/23 10:11:56;;;;;;;1.85;0.98;;;20.10;85.50;;;;;;4991988;28;20047;-78
2021/08/23 10:14:22;;;;;;;1.10;0.93;;;20.20;85.50;;;;;;4991441;28;20064;-78
2021/08/23 10:16:48;;;;;;;1.13;0.75;;;20.10;85.40;;;;;;4993502;28;20050;-78
2021/08/23 10:19:14;;;;;;;0.90;0.70;;;20.20;85.50;;;;;;5008596;28;20038;-78
2021/08/23 10:21:43;;;;;;;1.95;0.77;;;20.30;85.50;;;;;;4991055;28;20050;-78
2021/08/23 10:24:12;;;;;;;2.42;0.70;;;20.30;85.40;;;;;;4991573;28;20101;-78
2021/08/23 10:26:40;;;;;;;0.88;0.70;;;20.40;85.20;;;;;;4990529;28;20038;-77
2021/08/23 10:29:09;;;;;;;1.42;1.10;;;20.50;84.80;;;;;;4991953;28;20031;-77
2021/08/23 10:31:36;;;;;;;2.15;1.00;;;20.60;84.70;;;;;;4991871;28;20047;-78
2021/08/23 10:34:11;;;;;;;1.63;0.93;;;20.50;84.70;;;;;;4993233;28;20043;-78
2021/08/23 10:36:37;;;;;;;0.57;0.57;;;20.50;84.70;;;;;;4993796;28;20026;-78
2021/08/23 10:39:04;;;;;;;0.85;0.80;;;20.50;84.90;;;;;;4989779;28;20034;-77
2021/08/23 10:41:30;;;;;;;0.93;0.80;;;20.60;84.80;;;;;;4991774;28;20042;-77
2021/08/23 10:43:58;;;;;;;1.20;0.70;;;20.70;84.60;;;;;;4993590;28;20038;-78
2021/08/23 10:46:27;;;;;;;1.48;1.08;;;20.70;84.30;;;;;;4990469;28;20034;-79
2021/08/23 10:48:54;;;;;;;1.10;0.80;;;20.80;84.00;;;;;;5007880;28;20035;-77
2021/08/23 10:51:38;;;;;;;1.58;0.70;;;21.00;83.60;;;;;;4993112;28;20034;-77
2021/08/23 10:54:21;;;;;;;0.95;0.75;;;21.00;83.40;;;;;;5005742;28;20384;-77
2021/08/23 10:56:51;;;;;;;1.33;0.90;;;21.00;83.20;;;;;;4991078;28;20026;-78
2021/08/23 10:59:19;;;;;;;0.73;0.73;;;20.90;83.30;;;;;;5007434;28;20088;-76
2021/08/23 11:01:58;;;;;;;1.20;0.80;;;20.90;83.70;;;;;;4992450;28;20046;-78
2021/08/23 11:04:41;;;;;;;1.02;0.70;;;21.00;83.40;;;;;;4989879;28;20062;-77
2021/08/23 11:07:09;;;;;;;1.40;0.82;;;21.20;83.00;;;;;;5005819;28;20042;-77
2021/08/23 11:09:43;;;;;;;1.10;0.90;;;21.20;82.80;;;;;;4992366;28;20486;-77
2021/08/23 11:12:14;;;;;;;1.30;0.80;;;21.20;82.80;;;;;;4992244;28;20045;-78
2021/08/23 11:14:46;;;;;;;0.80;0.70;;;21.10;82.70;;;;;;5008004;28;20034;-77
2021/08/23 11:17:12;;;;;;;0.70;0.70;;;21.00;83.00;;;;;;4991472;28;20031;-78
2021/08/23 11:19:39;;;;;;;0.60;0.60;;;21.00;83.20;;;;;;5008171;28;20031;-77
2021/08/23 11:22:06;;;;;;;2.70;0.90;;;21.10;83.10;;;;;;5007363;28;20097;-77
2021/08/23 11:24:33;;;;;;;0.77;0.60;;;21.30;82.70;;;;;;4991018;28;20081;-78
2021/08/23 11:27:01;;;;;;;1.30;0.88;;;21.40;82.30;;;;;;4991588;28;20042;-78
2021/08/23 11:29:29;;;;;;;2.17;0.77;;;21.40;81.90;;;;;;4992680;28;20116;-78
2021/08/23 11:31:58;;;;;;;0.68;0.60;;;21.60;81.70;;;;;;4990902;28;20517;-77
2021/08/23 11:34:25;;;;;;;0.63;0.63;;;21.70;81.20;;;;;;4990333;28;20089;-78
2021/08/23 11:36:52;;;;;;;0.98;0.75;;;21.80;81.00;;;;;;4989878;28;20031;-78
2021/08/23 11:39:17;;;;;;;0.77;0.70;;;21.80;80.80;;;;;;4992684;28;20022;-77
2021/08/23 11:41:43;;;;;;;0.68;0.60;;;21.90;80.50;;;;;;4990435;28;20039;-78
2021/08/23 11:44:09;;;;;;;0.65;0.60;;;22.00;80.30;;;;;;4990086;28;20030;-78
2021/08/23 11:46:35;;;;;;;0.70;0.63;;;22.10;80.00;;;;;;4992140;28;20483;-78
2021/08/23 11:49:01;;;;;;;0.73;0.70;;;22.20;79.80;;;;;;4990932;28;20402;-77
2021/08/23 11:51:29;;;;;;;0.68;0.68;;;22.20;79.60;;;;;;4994574;28;20046;-77
2021/08/23 11:53:55;;;;;;;0.60;0.60;;;22.20;79.40;;;;;;5009390;28;20038;-78
2021/08/23 11:56:21;;;;;;;1.10;0.70;;;22.10;79.70;;;;;;4995469;28;20085;-78
2021/08/23 11:58:47;;;;;;;1.05;0.40;;;22.10;80.00;;;;;;4993884;28;20038;-78
2021/08/23 12:01:15;;;;;;;0.60;0.60;;;22.20;80.00;;;;;;5009409;28;20521;-78
2021/08/23 12:03:42;;;;;;;0.80;0.60;;;22.30;79.60;;;;;;4993729;28;20046;-78
2021/08/23 12:06:09;;;;;;;0.73;0.70;;;22.40;79.40;;;;;;4992751;28;20061;-78
2021/08/23 12:08:37;;;;;;;1.00;0.80;;;22.40;79.10;;;;;;4992143;28;20039;-78
2021/08/23 12:11:13;;;;;;;1.30;0.80;;;22.50;79.00;;;;;;4993806;28;20049;-79
2021/08/23 12:13:42;;;;;;;0.40;0.40;;;22.60;78.80;;;;;;4994130;28;20039;-78
2021/08/23 12:16:11;;;;;;;0.80;0.60;;;22.50;78.60;;;;;;4995450;28;20467;-77
2021/08/23 12:18:42;;;;;;;1.33;0.93;;;22.50;78.80;;;;;;4992594;28;20033;-77
2021/08/23 12:21:18;;;;;;;0.40;0.40;;;22.40;78.90;;;;;;5008722;28;20098;-78
2021/08/23 12:23:49;;;;;;;0.85;0.60;;;22.20;79.10;;;;;;4995087;28;20047;-78
2021/08/23 12:26:16;;;;;;;0.40;0.40;;;22.20;79.50;;;;;;4994796;28;20033;-78
2021/08/23 12:28:49;;;;;;;0.65;0.60;;;22.10;79.60;;;;;;4992722;28;20043;-77
2021/08/23 12:31:17;;;;;;;1.27;0.50;;;22.20;79.60;;;;;;4993370;28;20038;-77
2021/08/23 12:33:43;;;;;;;0.75;0.70;;;22.30;79.40;;;;;;4992584;28;20045;-77
2021/08/23 12:36:09;;;;;;;0.60;0.60;;;22.40;79.00;;;;;;4993621;28;20062;-78
2021/08/23 12:38:34;;;;;;;0.98;0.60;;;22.50;78.60;;;;;;4994975;28;20170;-78
2021/08/23 12:41:00;;;;;;;0.70;0.60;;;22.50;78.40;;;;;;4991837;28;20046;-78
2021/08/23 12:43:26;;;;;;;0.70;0.70;;;22.50;78.50;;;;;;4995475;28;20116;-78
2021/08/23 12:45:52;;;;;;;0.60;0.60;;;22.40;78.60;;;;;;5009161;28;20034;-78
2021/08/23 12:48:18;;;;;;;0.70;0.70;;;22.30;78.70;;;;;;5008148;28;20396;-79
2021/08/23 12:50:43;;;;;;;0.80;0.68;;;22.30;78.80;;;;;;4995043;28;20097;-78